Wetterstation Vordersexau
Wetterdaten: Woche 08.01.18 - 14.01.18 (KW2)
Datum Zeit Temp. A. Feuchte A. Luftdruck Regen Wind Richtung Taupunkt Windchill Windben
08.01.2018 00:00 1,1 C 84 % 1015,5 hPa 0,0 l/m 0,0 km/h O-SO -1,3 C 1,1 C 0,0 km/h
08.01.2018 01:00 1,9 C 83 % 1015,7 hPa 0,0 l/m 0,0 km/h O-SO -0,7 C 1,9 C 0,0 km/h
08.01.2018 02:00 1,9 C 82 % 1015,9 hPa 0,0 l/m 0,0 km/h O-SO -0,8 C 1,9 C 0,0 km/h
08.01.2018 03:00 2,2 C 81 % 1016,2 hPa 0,0 l/m 0,0 km/h O-SO -0,7 C 2,2 C 0,0 km/h
08.01.2018 04:00 2,2 C 81 % 1016,5 hPa 0,5 l/m 0,0 km/h O-SO -0,7 C 2,2 C 0,0 km/h
08.01.2018 05:00 2,3 C 81 % 1016,1 hPa 0,0 l/m 0,0 km/h O-SO -0,6 C 2,3 C 0,0 km/h
08.01.2018 06:00 1,9 C 80 % 1015,5 hPa 0,0 l/m 0,0 km/h O-SO -1,2 C 1,9 C 0,0 km/h
08.01.2018 07:00 1,9 C 80 % 1015,7 hPa 0,0 l/m 7,8 km/h O-SO -1,2 C 0,5 C 4,3 km/h
08.01.2018 08:00 2,1 C 79 % 1015,6 hPa 0,0 l/m 0,0 km/h O-SO -1,2 C 2,1 C 0,0 km/h
08.01.2018 09:00 2,5 C 78 % 1015,7 hPa 0,0 l/m 0,0 km/h W-SW -0,9 C 2,5 C 0,0 km/h
08.01.2018 10:00 3,1 C 77 % 1015,9 hPa 0,0 l/m 0,0 km/h W -0,5 C 3,1 C 0,0 km/h
08.01.2018 11:00 3,4 C 76 % 1015,4 hPa 0,0 l/m 0,0 km/h S -0,4 C 3,4 C 0,0 km/h
08.01.2018 12:00 3,9 C 76 % 1014,4 hPa 0,0 l/m 0,0 km/h S 0,1 C 3,9 C 0,0 km/h
08.01.2018 13:00 4,8 C 77 % 1013,9 hPa 0,0 l/m 0,0 km/h W-SW 1,1 C 4,8 C 0,0 km/h
08.01.2018 14:00 5,0 C 81 % 1014,0 hPa 0,0 l/m 0,0 km/h S-SO 2,0 C 5,0 C 0,0 km/h
08.01.2018 15:00 4,8 C 80 % 1013,9 hPa 0,0 l/m 0,0 km/h SO 1,6 C 4,8 C 0,0 km/h
08.01.2018 16:00 4,6 C 80 % 1013,4 hPa 0,0 l/m 0,0 km/h SO 1,5 C 4,6 C 0,0 km/h
08.01.2018 17:00 4,3 C 80 % 1013,7 hPa 0,0 l/m 0,0 km/h SO 1,2 C 4,3 C 0,0 km/h
08.01.2018 18:00 4,5 C 79 % 1013,3 hPa 0,0 l/m 0,0 km/h SO 1,2 C 4,5 C 0,0 km/h
08.01.2018 19:00 4,4 C 78 % 1012,9 hPa 0,0 l/m 0,0 km/h SO 0,9 C 4,4 C 0,0 km/h
08.01.2018 20:00 4,3 C 78 % 1012,5 hPa 0,0 l/m 0,0 km/h SO 0,8 C 4,3 C 0,0 km/h
08.01.2018 21:00 3,9 C 78 % 1011,9 hPa 0,0 l/m 0,0 km/h SO 0,4 C 3,9 C 0,0 km/h
08.01.2018 22:00 3,8 C 78 % 1011,1 hPa 0,0 l/m 0,0 km/h O-SO 0,3 C 3,8 C 0,0 km/h
08.01.2018 23:00 3,6 C 77 % 1010,0 hPa 0,0 l/m 0,0 km/h S-SW -0,0 C 3,6 C 0,0 km/h
09.01.2018 00:00 3,3 C 77 % 1009,5 hPa 0,0 l/m 0,0 km/h S-SW -0,3 C 3,3 C 0,0 km/h
09.01.2018 01:00 3,5 C 76 % 1009,2 hPa 0,0 l/m 0,0 km/h W-SW -0,3 C 3,5 C 0,0 km/h
09.01.2018 02:00 3,5 C 75 % 1009,4 hPa 0,0 l/m 0,0 km/h W-SW -0,5 C 3,5 C 0,0 km/h
09.01.2018 03:00 3,8 C 74 % 1010,5 hPa 0,0 l/m 0,0 km/h SO -0,4 C 3,8 C 0,0 km/h
09.01.2018 04:00 4,4 C 73 % 1011,6 hPa 0,0 l/m 0,0 km/h S -0,0 C 4,4 C 0,0 km/h
09.01.2018 05:00 4,1 C 75 % 1009,8 hPa 0,0 l/m 0,0 km/h N-NO 0,1 C 4,1 C 0,0 km/h
09.01.2018 06:00 3,3 C 75 % 1009,3 hPa 0,0 l/m 0,0 km/h N -0,7 C 3,3 C 0,0 km/h
09.01.2018 07:00 3,1 C 76 % 1009,5 hPa 0,0 l/m 0,0 km/h N-NO -0,7 C 3,1 C 0,0 km/h
09.01.2018 08:00 2,3 C 76 % 1009,2 hPa 0,0 l/m 0,0 km/h N -1,5 C 2,3 C 0,0 km/h
09.01.2018 09:00 3,6 C 73 % 1009,4 hPa 0,0 l/m 0,0 km/h N-NW -0,8 C 3,6 C 0,0 km/h
09.01.2018 10:00 7,8 C 64 % 1009,8 hPa 0,0 l/m 0,0 km/h N-NO 1,4 C 7,8 C 0,0 km/h
09.01.2018 11:00 6,3 C 81 % 1009,5 hPa 0,0 l/m 0,0 km/h N-NO 3,3 C 6,3 C 0,0 km/h
09.01.2018 12:00 6,6 C 84 % 1009,5 hPa 0,0 l/m 0,0 km/h N-NO 4,1 C 6,6 C 0,0 km/h
09.01.2018 13:00 8,6 C 86 % 1009,3 hPa 0,0 l/m 0,0 km/h W-NW 6,4 C 8,6 C 0,0 km/h
09.01.2018 14:00 12,1 C 79 % 1009,3 hPa 0,0 l/m 0,0 km/h W-NW 8,6 C 12,1 C 0,0 km/h
09.01.2018 15:00 7,8 C 84 % 1009,3 hPa 0,0 l/m 0,0 km/h W-NW 5,3 C 7,8 C 0,0 km/h
09.01.2018 16:00 6,4 C 85 % 1010,1 hPa 0,0 l/m 0,0 km/h W-NW 4,1 C 6,4 C 0,0 km/h
09.01.2018 17:00 4,8 C 86 % 1010,0 hPa 0,0 l/m 0,0 km/h W-NW 2,7 C 4,8 C 0,0 km/h
09.01.2018 18:00 4,9 C 86 % 1010,6 hPa 0,0 l/m 0,0 km/h W-NW 2,8 C 4,9 C 0,0 km/h
09.01.2018 19:00 4,9 C 85 % 1010,9 hPa 0,0 l/m 0,0 km/h W-NW 2,6 C 4,9 C 0,0 km/h
09.01.2018 20:00 5,4 C 84 % 1011,9 hPa 0,0 l/m 0,0 km/h O-SO 2,9 C 5,4 C 0,0 km/h
09.01.2018 21:00 5,5 C 82 % 1011,2 hPa 0,0 l/m 0,0 km/h O-SO 2,7 C 5,5 C 0,0 km/h
09.01.2018 22:00 4,9 C 82 % 1010,9 hPa 0,0 l/m 0,0 km/h SO 2,1 C 4,9 C 0,0 km/h
09.01.2018 23:00 4,3 C 80 % 1010,9 hPa 0,0 l/m 0,0 km/h SO 1,2 C 4,3 C 0,0 km/h
10.01.2018 00:00 4,4 C 79 % 1010,5 hPa 0,0 l/m 0,0 km/h O 1,1 C 4,4 C 0,0 km/h
10.01.2018 01:00 4,1 C 78 % 1010,5 hPa 0,0 l/m 0,0 km/h SO 0,6 C 4,1 C 0,0 km/h
10.01.2018 02:00 4,2 C 77 % 1010,4 hPa 0,0 l/m 0,0 km/h SO 0,5 C 4,2 C 0,0 km/h
10.01.2018 03:00 3,9 C 77 % 1010,1 hPa 0,0 l/m 0,0 km/h O-SO 0,2 C 3,9 C 0,0 km/h
10.01.2018 04:00 3,5 C 77 % 1010,0 hPa 0,0 l/m 0,0 km/h O-SO -0,1 C 3,5 C 0,0 km/h
10.01.2018 05:00 3,4 C 77 % 1009,9 hPa 0,0 l/m 0,0 km/h O-SO -0,2 C 3,4 C 0,0 km/h
10.01.2018 06:00 3,4 C 77 % 1009,7 hPa 0,0 l/m 0,0 km/h O-NO -0,2 C 3,4 C 0,0 km/h
10.01.2018 07:00 3,3 C 79 % 1009,8 hPa 0,0 l/m 0,0 km/h O-SO 0,0 C 3,3 C 0,0 km/h
10.01.2018 08:00 3,4 C 79 % 1010,1 hPa 0,0 l/m 0,0 km/h O 0,1 C 3,4 C 0,0 km/h
10.01.2018 09:00 7,8 C 84 % 1010,1 hPa 0,0 l/m 0,0 km/h W-SW 5,3 C 7,8 C 0,0 km/h
10.01.2018 10:00 9,3 C 82 % 1009,8 hPa 0,0 l/m 0,0 km/h O-SO 6,4 C 9,3 C 0,0 km/h
10.01.2018 11:00 10,9 C 81 % 1009,2 hPa 0,0 l/m 0,0 km/h S-SO 7,8 C 10,9 C 0,0 km/h
10.01.2018 12:00 12,3 C 71 % 1008,7 hPa 0,0 l/m 0,0 km/h W-NW 7,2 C 12,3 C 0,0 km/h
10.01.2018 13:00 11,5 C 67 % 1008,5 hPa 0,0 l/m 0,0 km/h W 5,6 C 11,5 C 0,0 km/h
10.01.2018 14:00 9,3 C 74 % 1008,4 hPa 0,0 l/m 0,0 km/h W 4,9 C 9,3 C 0,0 km/h
10.01.2018 15:00 8,2 C 76 % 1008,4 hPa 0,0 l/m 0,0 km/h W 4,2 C 8,2 C 0,0 km/h
10.01.2018 16:00 7,5 C 80 % 1008,8 hPa 0,0 l/m 0,0 km/h S-SW 4,3 C 7,5 C 0,0 km/h
10.01.2018 17:00 8,1 C 76 % 1009,0 hPa 0,0 l/m 0,0 km/h S-SO 4,1 C 8,1 C 0,0 km/h
10.01.2018 18:00 8,1 C 76 % 1009,2 hPa 0,0 l/m 0,0 km/h SO 4,1 C 8,1 C 0,0 km/h
10.01.2018 19:00 6,6 C 79 % 1009,3 hPa 0,0 l/m 0,0 km/h SO 3,2 C 6,6 C 0,0 km/h
10.01.2018 20:00 5,1 C 83 % 1009,1 hPa 0,0 l/m 0,0 km/h SO 2,5 C 5,1 C 0,0 km/h
10.01.2018 21:00 3,6 C 85 % 1009,3 hPa 0,0 l/m 0,0 km/h O 1,3 C 3,6 C 0,0 km/h
10.01.2018 22:00 4,5 C 85 % 1009,4 hPa 0,0 l/m 0,0 km/h O-SO 2,2 C 4,5 C 0,0 km/h
10.01.2018 23:00 5,1 C 86 % 1009,1 hPa 0,0 l/m 0,0 km/h SO 3,0 C 5,1 C 0,0 km/h
11.01.2018 00:00 4,7 C 86 % 1008,8 hPa 0,0 l/m 0,0 km/h O-SO 2,6 C 4,7 C 0,0 km/h
11.01.2018 01:00 3,9 C 86 % 1008,8 hPa 0,0 l/m 0,0 km/h O-SO 1,8 C 3,9 C 0,0 km/h
11.01.2018 02:00 4,3 C 86 % 1009,2 hPa 0,0 l/m 0,0 km/h S-SO 2,2 C 4,3 C 0,0 km/h
11.01.2018 03:00 4,6 C 86 % 1009,6 hPa 0,0 l/m 0,0 km/h N-NO 2,5 C 4,6 C 0,0 km/h
11.01.2018 04:00 4,4 C 85 % 1009,6 hPa 0,5 l/m 0,0 km/h O-SO 2,1 C 4,4 C 0,0 km/h
11.01.2018 05:00 4,1 C 85 % 1009,6 hPa 0,5 l/m 0,0 km/h SO 1,8 C 4,1 C 0,0 km/h
11.01.2018 06:00 2,9 C 84 % 1009,9 hPa 0,0 l/m 0,0 km/h SO 0,5 C 2,9 C 0,0 km/h
11.01.2018 07:00 2,9 C 83 % 1010,6 hPa 0,0 l/m 0,0 km/h W-SW 0,3 C 2,9 C 0,0 km/h
11.01.2018 08:00 3,2 C 83 % 1011,5 hPa 0,0 l/m 0,0 km/h W-SW 0,6 C 3,2 C 0,0 km/h
11.01.2018 09:00 3,9 C 80 % 1012,1 hPa 0,0 l/m 0,0 km/h W-SW 0,8 C 3,9 C 0,0 km/h
11.01.2018 10:00 6,2 C 79 % 1012,3 hPa 0,0 l/m 0,0 km/h W-SW 2,8 C 6,2 C 0,0 km/h
11.01.2018 11:00 7,5 C 82 % 1012,3 hPa 0,0 l/m 0,0 km/h SO 4,6 C 7,5 C 0,0 km/h
11.01.2018 12:00 7,9 C 83 % 1012,5 hPa 0,0 l/m 0,0 km/h SO 5,2 C 7,9 C 0,0 km/h
11.01.2018 13:00 8,1 C 86 % 1012,6 hPa 0,0 l/m 0,0 km/h W-NW 5,9 C 8,1 C 0,0 km/h
11.01.2018 14:00 7,8 C 86 % 1013,1 hPa 0,0 l/m 0,0 km/h W-NW 5,6 C 7,8 C 0,0 km/h
11.01.2018 15:00 7,5 C 85 % 1013,6 hPa 0,0 l/m 0,0 km/h W-NW 5,1 C 7,5 C 0,0 km/h
11.01.2018 16:00 4,7 C 86 % 1014,2 hPa 0,0 l/m 0,0 km/h W-NW 2,6 C 4,7 C 0,0 km/h
11.01.2018 17:00 4,1 C 86 % 1014,8 hPa 0,0 l/m 0,0 km/h W-NW 2,0 C 4,1 C 0,0 km/h
11.01.2018 18:00 4,3 C 85 % 1015,2 hPa 0,0 l/m 0,0 km/h W-NW 2,0 C 4,3 C 0,0 km/h
11.01.2018 19:00 3,8 C 85 % 1015,8 hPa 0,0 l/m 0,0 km/h W-NW 1,5 C 3,8 C 0,0 km/h
11.01.2018 20:00 3,9 C 84 % 1016,3 hPa 0,0 l/m 0,0 km/h W-NW 1,4 C 3,9 C 0,0 km/h
11.01.2018 21:00 2,2 C 84 % 1016,6 hPa 0,0 l/m 0,0 km/h W-NW -0,2 C 2,2 C 0,0 km/h
11.01.2018 22:00 1,2 C 84 % 1017,1 hPa 0,0 l/m 0,0 km/h W-NW -1,2 C 1,2 C 0,0 km/h
11.01.2018 23:00 1,0 C 84 % 1017,5 hPa 0,0 l/m 0,0 km/h NW -1,4 C 1,0 C 0,0 km/h
12.01.2018 00:00 0,8 C 83 % 1018,1 hPa 0,0 l/m 0,0 km/h NW -1,8 C 0,8 C 0,0 km/h
12.01.2018 01:00 1,8 C 82 % 1018,2 hPa 0,0 l/m 0,0 km/h NW -0,9 C 1,8 C 0,0 km/h
12.01.2018 02:00 0,6 C 82 % 1018,8 hPa 0,0 l/m 0,0 km/h NW -2,1 C 0,6 C 0,0 km/h
12.01.2018 03:00 0,2 C 82 % 1018,8 hPa 0,0 l/m 0,0 km/h NW -2,5 C 0,2 C 0,0 km/h
12.01.2018 04:00 -0,2 C 82 % 1019,4 hPa 0,0 l/m 0,0 km/h NW -2,9 C -0,2 C 0,0 km/h
12.01.2018 05:00 0,2 C 81 % 1019,6 hPa 0,0 l/m 0,0 km/h NW -2,7 C 0,2 C 0,0 km/h
12.01.2018 06:00 0,2 C 80 % 1019,8 hPa 0,0 l/m 0,0 km/h NW -2,8 C 0,2 C 0,0 km/h
12.01.2018 07:00 0,6 C 79 % 1020,3 hPa 0,0 l/m 0,0 km/h NW -2,6 C 0,6 C 0,0 km/h
12.01.2018 08:00 0,4 C 79 % 1020,3 hPa 0,0 l/m 0,0 km/h NW -2,8 C 0,4 C 0,0 km/h
12.01.2018 09:00 1,8 C 77 % 1021,1 hPa 0,0 l/m 0,0 km/h SO -1,8 C 1,8 C 0,0 km/h
12.01.2018 10:00 2,2 C 78 % 1021,5 hPa 0,0 l/m 0,0 km/h S-SW -1,2 C 2,2 C 0,0 km/h
12.01.2018 11:00 3,4 C 75 % 1021,6 hPa 0,0 l/m 0,0 km/h SW -0,6 C 3,4 C 0,0 km/h
12.01.2018 12:00 5,3 C 77 % 1021,2 hPa 0,0 l/m 0,0 km/h N-NW 1,6 C 5,3 C 0,0 km/h
12.01.2018 13:00 7,4 C 86 % 1021,1 hPa 0,0 l/m 0,0 km/h SW 5,2 C 7,4 C 0,0 km/h
12.01.2018 14:00 6,2 C 86 % 1021,0 hPa 0,0 l/m 0,0 km/h S-SW 4,0 C 6,2 C 0,0 km/h
12.01.2018 15:00 7,6 C 82 % 1021,2 hPa 0,0 l/m 0,0 km/h S-SW 4,7 C 7,6 C 0,0 km/h
12.01.2018 16:00 4,6 C 86 % 1021,5 hPa 0,0 l/m 0,0 km/h S-SW 2,5 C 4,6 C 0,0 km/h
12.01.2018 17:00 2,1 C 86 % 1021,8 hPa 0,0 l/m 0,0 km/h S-SW 0,0 C 2,1 C 0,0 km/h
12.01.2018 18:00 0,6 C 86 % 1022,1 hPa 0,0 l/m 0,0 km/h S-SW -1,5 C 0,6 C 0,0 km/h
12.01.2018 19:00 0,4 C 86 % 1021,9 hPa 0,0 l/m 0,0 km/h S-SW -1,7 C 0,4 C 0,0 km/h
12.01.2018 20:00 -0,4 C 86 % 1022,0 hPa 0,0 l/m 0,0 km/h SW -2,4 C -0,4 C 0,0 km/h
12.01.2018 21:00 -1,1 C 86 % 1022,2 hPa 0,0 l/m 0,0 km/h S-SW -3,1 C -1,1 C 0,0 km/h
12.01.2018 22:00 -1,1 C 84 % 1022,2 hPa 0,0 l/m 0,0 km/h S-SW -3,4 C -1,1 C 0,0 km/h
12.01.2018 23:00 -1,4 C 83 % 1022,0 hPa 0,0 l/m 0,0 km/h S-SO -3,9 C -1,4 C 0,0 km/h
13.01.2018 00:00 -1,5 C 83 % 1021,8 hPa 0,0 l/m 0,0 km/h O-NO -4,0 C -1,5 C 0,0 km/h
13.01.2018 01:00 -1,9 C 82 % 1021,8 hPa 0,0 l/m 0,0 km/h O-NO -4,6 C -1,9 C 0,0 km/h
13.01.2018 02:00 -2,1 C 82 % 1022,2 hPa 0,0 l/m 0,0 km/h O-NO -4,7 C -2,1 C 0,0 km/h
13.01.2018 03:00 -2,2 C 82 % 1021,8 hPa 0,0 l/m 0,0 km/h O-NO -4,8 C -2,2 C 0,0 km/h
13.01.2018 04:00 -1,1 C 82 % 1021,4 hPa 0,0 l/m 0,0 km/h O-NO -3,8 C -1,1 C 0,0 km/h
13.01.2018 05:00 -0,8 C 82 % 1021,0 hPa 0,0 l/m 0,0 km/h SO -3,5 C -0,8 C 0,0 km/h
13.01.2018 06:00 -0,9 C 82 % 1020,9 hPa 0,0 l/m 0,0 km/h NO -3,6 C -0,9 C 0,0 km/h
13.01.2018 07:00 -0,4 C 81 % 1020,6 hPa 0,0 l/m 0,0 km/h SO -3,3 C -0,4 C 0,0 km/h
13.01.2018 08:00 0,1 C 80 % 1020,3 hPa 0,0 l/m 0,0 km/h N-NO -2,9 C 0,1 C 0,0 km/h
13.01.2018 09:00 1,1 C 79 % 1020,2 hPa 0,0 l/m 0,0 km/h SO -2,1 C 1,1 C 0,0 km/h
13.01.2018 10:00 4,1 C 85 % 1020,5 hPa 0,0 l/m 5,2 km/h SO 1,8 C 4,1 C 2,9 km/h
13.01.2018 11:00 6,2 C 80 % 1020,1 hPa 0,0 l/m 13,0 km/h SO 3,0 C 1,6 C 7,2 km/h
13.01.2018 12:00 6,8 C 70 % 1019,7 hPa 0,0 l/m 24,0 km/h SO 1,7 C -2,2 C 13,3 km/h
13.01.2018 13:00 9,3 C 71 % 1018,9 hPa 0,0 l/m 0,0 km/h N-NO 4,3 C 9,3 C 0,0 km/h
13.01.2018 14:00 12,8 C 55 % 1018,2 hPa 0,0 l/m 3,9 km/h N-NW 4,0 C 12,8 C 2,2 km/h
13.01.2018 15:00 14,5 C 50 % 1018,1 hPa 0,0 l/m 0,0 km/h NW 4,2 C 14,5 C 0,0 km/h
13.01.2018 16:00 5,9 C 65 % 1018,0 hPa 0,0 l/m 3,2 km/h SO -0,2 C 5,9 C 1,8 km/h
13.01.2018 17:00 1,5 C 77 % 1018,0 hPa 0,0 l/m 0,0 km/h SO -2,1 C 1,5 C 0,0 km/h
13.01.2018 18:00 -0,4 C 81 % 1017,9 hPa 0,0 l/m 0,0 km/h SO -3,3 C -0,4 C 0,0 km/h
13.01.2018 19:00 -1,2 C 84 % 1017,9 hPa 0,0 l/m 0,0 km/h O-SO -3,5 C -1,2 C 0,0 km/h
13.01.2018 20:00 -1,6 C 85 % 1017,9 hPa 0,0 l/m 0,0 km/h O-SO -3,8 C -1,6 C 0,0 km/h
13.01.2018 21:00 -1,7 C 86 % 1017,8 hPa 0,0 l/m 0,0 km/h O-SO -3,7 C -1,7 C 0,0 km/h
13.01.2018 22:00 -1,8 C 86 % 1017,5 hPa 0,0 l/m 0,0 km/h NO -3,8 C -1,8 C 0,0 km/h
13.01.2018 23:00 -2,4 C 86 % 1017,7 hPa 0,0 l/m 0,0 km/h NO -4,4 C -2,4 C 0,0 km/h
14.01.2018 00:00 -2,9 C 86 % 1017,4 hPa 0,0 l/m 0,0 km/h NO -4,9 C -2,9 C 0,0 km/h
14.01.2018 01:00 -3,2 C 86 % 1017,2 hPa 0,0 l/m 0,0 km/h NO -5,2 C -3,2 C 0,0 km/h
14.01.2018 02:00 -3,4 C 86 % 1017,2 hPa 0,0 l/m 0,0 km/h NO -5,4 C -3,4 C 0,0 km/h
14.01.2018 03:00 -3,3 C 86 % 1017,2 hPa 0,0 l/m 0,0 km/h NO -5,3 C -3,3 C 0,0 km/h
14.01.2018 04:00 -3,1 C 86 % 1017,2 hPa 0,0 l/m 0,0 km/h NO -5,1 C -3,1 C 0,0 km/h
14.01.2018 05:00 -3,4 C 86 % 1017,2 hPa 0,0 l/m 0,0 km/h NO -5,4 C -3,4 C 0,0 km/h
14.01.2018 06:00 -4,1 C 86 % 1017,5 hPa 0,0 l/m 0,0 km/h NO -6,1 C -4,1 C 0,0 km/h
14.01.2018 07:00 -4,2 C 86 % 1017,6 hPa 0,0 l/m 0,0 km/h NO -6,2 C -4,2 C 0,0 km/h
14.01.2018 08:00 -3,6 C 86 % 1017,8 hPa 0,0 l/m 0,0 km/h NO -5,6 C -3,6 C 0,0 km/h
14.01.2018 09:00 3,2 C 86 % 1018,2 hPa 0,0 l/m 0,0 km/h NO 1,1 C 3,2 C 0,0 km/h
14.01.2018 10:00 7,3 C 74 % 1018,4 hPa 0,0 l/m 0,0 km/h NW 3,0 C 7,3 C 0,0 km/h
14.01.2018 11:00 7,4 C 69 % 1018,0 hPa 0,0 l/m 0,0 km/h W-NW 2,1 C 7,4 C 0,0 km/h
14.01.2018 12:00 7,9 C 67 % 1017,5 hPa 0,0 l/m 0,0 km/h W 2,2 C 7,9 C 0,0 km/h
14.01.2018 13:00 8,4 C 64 % 1017,1 hPa 0,0 l/m 0,0 km/h W 2,0 C 8,4 C 0,0 km/h
14.01.2018 14:00 9,7 C 60 % 1017,0 hPa 0,0 l/m 0,0 km/h W 2,3 C 9,7 C 0,0 km/h
14.01.2018 15:00 9,5 C 59 % 1017,5 hPa 0,0 l/m 0,0 km/h W 1,9 C 9,5 C 0,0 km/h
14.01.2018 16:00 5,2 C 65 % 1017,7 hPa 0,0 l/m 0,0 km/h W -0,8 C 5,2 C 0,0 km/h
14.01.2018 17:00 -0,2 C 77 % 1018,2 hPa 0,0 l/m 0,0 km/h W -3,7 C -0,2 C 0,0 km/h
14.01.2018 18:00 -1,3 C 82 % 1018,7 hPa 0,0 l/m 0,0 km/h S-SW -4,0 C -1,3 C 0,0 km/h
14.01.2018 19:00 -1,8 C 84 % 1018,8 hPa 0,0 l/m 0,0 km/h S -4,1 C -1,8 C 0,0 km/h
14.01.2018 20:00 -1,9 C 85 % 1018,8 hPa 0,0 l/m 0,0 km/h S -4,1 C -1,9 C 0,0 km/h
14.01.2018 21:00 -2,3 C 86 % 1019,0 hPa 0,0 l/m 0,0 km/h S -4,3 C -2,3 C 0,0 km/h
14.01.2018 22:00 -2,8 C 86 % 1018,9 hPa 0,0 l/m 0,0 km/h SO -4,8 C -2,8 C 0,0 km/h
14.01.2018 23:00 -2,9 C 86 % 1018,8 hPa 0,0 l/m 0,0 km/h SO -4,9 C -2,9 C 0,0 km/h
Min-Datum _ 14.01.18 13.01.18 10.01.18 - 08.01.18 - 14.01.18 14.01.18 08.01.18
_ Min-Zeit 07:53 15:53 14:53 - 00:53 - 07:53 07:53 00:53
Minimum _ -4,2 C 50 % 1008,4 hPa - 0,0 km/h - -6,2 C -4,2 C 0,0 km/h
Max-Datum _ 13.01.18 09.01.18 12.01.18 08.01.18 13.01.18 - 09.01.18 13.01.18 13.01.18
_ Max-Zeit 15:53 13:53 21:53 04:53 12:53 - 14:53 15:53 12:53
Maximum _ 14,5 C 86 % 1022,2 hPa 0,5 l/m 24,0 km/h
SO
- 8,6 C 14,5 C 13,3 km/h
SO
Durchschnitt _ 3,4 C 80 % 1015,0 hPa #1,6 l/m 0,3 km/h SO 0,2 C 3,3 C 0,2 km/h
www.sexauwetter.de